Time;durP1;ratioP1;P1;durP2;ratioP2;P2;SDS_P1;SDS_P2;PMS_P1;PMS_P2;Temp;Humidity;BMP_temperature;BMP_pressure;BME280_temperature;BME280_humidity;BME280_pressure;Samples;Min_cycle;Max_cycle;Signal;HPM_P1;HPM_P2
2022/11/06 00:00:35;;;;;;;17.50;9.93;;;;;;;14.52;100.00;96751.91;5094325;28;20664;-48
2022/11/06 00:03:04;;;;;;;15.57;10.18;;;;;;;14.37;100.00;96758.78;5093906;28;20450;-46
2022/11/06 00:08:29;;;;;;;14.23;9.10;;;;;;;14.29;100.00;96764.06;5094434;28;20072;-47
2022/11/06 00:10:57;;;;;;;14.35;8.98;;;;;;;14.21;100.00;96771.00;5099934;28;20072;-44
2022/11/06 00:13:26;;;;;;;13.07;8.60;;;;;;;14.22;100.00;96764.72;5096267;28;20092;-45
2022/11/06 00:15:54;;;;;;;12.73;7.85;;;;;;;13.94;100.00;96764.09;5102324;28;20802;-43
2022/11/06 00:18:26;;;;;;;13.13;7.75;;;;;;;14.23;100.00;96761.06;5094144;28;20087;-48
2022/11/06 00:20:54;;;;;;;15.20;7.10;;;;;;;13.74;100.00;96762.66;5101857;28;20090;-50
2022/11/06 00:23:22;;;;;;;13.75;5.72;;;;;;;13.72;100.00;96761.97;5098251;28;20105;-50
2022/11/06 00:25:55;;;;;;;8.15;5.85;;;;;;;13.87;98.03;96763.06;5095224;28;20074;-49
2022/11/06 00:28:23;;;;;;;11.57;5.60;;;;;;;13.44;100.00;96758.63;5093589;28;20109;-47
2022/11/06 00:31:01;;;;;;;9.82;6.60;;;;;;;13.71;100.00;96750.53;5096622;28;20076;-47
2022/11/06 00:33:29;;;;;;;9.10;6.20;;;;;;;13.22;100.00;96752.84;5092831;28;20078;-49
2022/11/06 00:35:57;;;;;;;8.93;6.18;;;;;;;12.54;100.00;96752.53;5096018;28;20064;-48
2022/11/06 00:38:26;;;;;;;13.77;5.80;;;;;;;11.98;100.00;96753.56;5095449;28;20078;-44
2022/11/06 00:40:56;;;;;;;12.13;5.72;;;;;;;12.03;100.00;96754.75;5099107;28;20086;-46
2022/11/06 00:43:24;;;;;;;21.58;5.35;;;;;;;11.43;100.00;96750.78;5099001;28;20584;-43
2022/11/06 00:45:53;;;;;;;24.83;4.82;;;;;;;11.99;100.00;96742.81;5095660;28;20078;-43
2022/11/06 00:48:21;;;;;;;26.85;4.90;;;;;;;11.76;100.00;96746.78;5094914;28;20486;-49
2022/11/06 00:50:50;;;;;;;26.38;4.88;;;;;;;12.03;100.00;96744.19;5100245;28;20079;-48
2022/11/06 00:53:18;;;;;;;29.13;4.72;;;;;;;12.63;100.00;96742.84;5100253;28;20084;-56
2022/11/06 00:55:46;;;;;;;34.13;5.00;;;;;;;12.12;100.00;96745.13;5093532;28;20071;-51
2022/11/06 00:58:16;;;;;;;26.83;4.68;;;;;;;11.77;100.00;96753.75;5092570;28;20084;-51
2022/11/06 01:00:45;;;;;;;26.33;4.50;;;;;;;11.97;100.00;96749.22;5098755;28;20091;-50
2022/11/06 01:03:13;;;;;;;13.60;4.90;;;;;;;12.33;100.00;96758.94;5096157;28;20075;-48
2022/11/06 01:05:41;;;;;;;34.53;5.05;;;;;;;11.90;100.00;96748.97;5095050;28;20076;-51
2022/11/06 01:08:10;;;;;;;24.75;5.47;;;;;;;12.20;100.00;96744.41;5100533;28;20083;-46
2022/11/06 01:10:38;;;;;;;40.75;5.50;;;;;;;12.33;100.00;96745.72;5100435;28;20063;-45
2022/11/06 01:13:07;;;;;;;26.10;6.25;;;;;;;12.82;100.00;96746.19;5091175;28;20083;-49
2022/11/06 01:15:37;;;;;;;25.90;5.35;;;;;;;12.33;100.00;96743.06;5097172;28;20708;-50
2022/11/06 01:18:05;;;;;;;24.52;5.57;;;;;;;12.65;100.00;96736.44;5098457;28;20079;-43
2022/11/06 01:20:34;;;;;;;53.80;5.63;;;;;;;11.56;100.00;96740.72;5095146;28;20567;-47
2022/11/06 01:23:02;;;;;;;58.08;5.70;;;;;;;11.73;100.00;96739.16;5098482;28;20083;-51
2022/11/06 01:25:31;;;;;;;45.08;5.25;;;;;;;11.65;100.00;96735.41;5096373;28;20086;-46
2022/11/06 01:27:59;;;;;;;67.85;5.93;;;;;;;10.94;100.00;96735.00;5095319;28;20082;-47
2022/11/06 01:30:27;;;;;;;117.55;7.15;;;;;;;10.79;100.00;96726.69;5097748;28;20075;-52
2022/11/06 01:32:57;;;;;;;86.18;6.18;;;;;;;10.86;100.00;96725.16;5101582;28;20522;-42
2022/11/06 01:35:25;;;;;;;75.60;6.80;;;;;;;10.45;100.00;96727.09;5094308;28;20534;-46
2022/11/06 01:37:53;;;;;;;48.80;5.55;;;;;;;10.98;100.00;96717.09;5099036;28;20072;-46
2022/11/06 01:40:22;;;;;;;56.95;7.00;;;;;;;11.58;100.00;96718.47;5095848;28;20079;-48
2022/11/06 01:42:50;;;;;;;74.72;8.52;;;;;;;12.02;100.00;96721.41;5100357;28;20083;-46
2022/11/06 01:45:27;;;;;;;83.47;6.93;;;;;;;12.01;100.00;96725.03;5093401;28;20091;-45
2022/11/06 01:47:57;;;;;;;25.90;5.47;;;;;;;11.85;100.00;96720.34;5097817;28;20079;-45
2022/11/06 01:50:25;;;;;;;22.00;5.40;;;;;;;12.03;100.00;96716.94;5090225;28;20538;-44
2022/11/06 01:52:54;;;;;;;23.35;5.05;;;;;;;12.33;100.00;96708.69;5093951;28;20076;-49
2022/11/06 01:55:25;;;;;;;33.20;4.93;;;;;;;11.18;100.00;96716.09;5095033;28;20478;-50
2022/11/06 01:57:55;;;;;;;37.17;5.53;;;;;;;11.00;100.00;96713.34;5094454;28;20071;-43
2022/11/06 02:00:25;;;;;;;19.52;5.38;;;;;;;11.78;100.00;96713.97;5100959;28;20481;-43
2022/11/06 02:02:53;;;;;;;15.60;5.27;;;;;;;11.78;100.00;96711.31;5096270;28;20465;-44
2022/11/06 02:05:23;;;;;;;17.85;5.75;;;;;;;12.16;100.00;96706.84;5099056;28;20083;-49
2022/11/06 02:07:52;;;;;;;17.00;6.50;;;;;;;12.30;100.00;96706.34;5096778;28;20076;-47
2022/11/06 02:10:20;;;;;;;21.73;6.45;;;;;;;11.38;100.00;96711.59;5097208;28;20556;-48
2022/11/06 02:12:56;;;;;;;16.23;7.05;;;;;;;11.92;100.00;96717.97;5093733;28;20080;-51
2022/11/06 02:15:31;;;;;;;9.25;5.88;;;;;;;11.86;100.00;96711.44;5093599;28;20092;-49
2022/11/06 02:18:10;;;;;;;15.00;5.85;;;;;;;12.04;100.00;96698.31;5100461;28;20086;-47
2022/11/06 02:20:46;;;;;;;23.92;6.28;;;;;;;12.02;100.00;96704.72;5100408;28;20152;-48
2022/11/06 02:23:38;;;;;;;21.52;6.18;;;;;;;11.73;100.00;96697.69;5099227;28;20494;-46
2022/11/06 02:26:19;;;;;;;19.67;6.35;;;;;;;12.02;100.00;96705.53;5095765;28;20086;-44
2022/11/06 02:28:51;;;;;;;37.60;6.47;;;;;;;12.08;100.00;96698.84;5098353;28;20079;-51
2022/11/06 02:31:24;;;;;;;20.75;5.35;;;;;;;12.09;100.00;96703.13;5105165;28;20083;-50
2022/11/06 02:33:55;;;;;;;20.00;5.32;;;;;;;12.18;100.00;96698.75;5101937;28;20075;-44
2022/11/06 02:36:28;;;;;;;22.27;5.07;;;;;;;11.63;100.00;96699.53;5101080;28;20081;-51
2022/11/06 02:38:59;;;;;;;22.10;6.32;;;;;;;11.16;100.00;96695.13;5096706;28;20475;-46
2022/11/06 02:41:32;;;;;;;30.52;6.65;;;;;;;10.68;100.00;96695.19;5095170;28;20075;-44
2022/11/06 02:44:03;;;;;;;29.00;5.50;;;;;;;11.04;100.00;96692.78;5095336;28;20087;-47
2022/11/06 02:46:34;;;;;;;37.47;6.30;;;;;;;11.43;100.00;96692.69;5098825;28;20079;-45
2022/11/06 02:49:03;;;;;;;;;;;;;;;11.95;100.00;96682.50;5094141;28;20084;-45
2022/11/06 02:51:33;;;;;;;25.80;6.10;;;;;;;12.14;100.00;96687.66;5099124;28;20397;-44
2022/11/06 02:54:02;;;;;;;19.40;5.50;;;;;;;12.25;100.00;96683.94;5107697;28;20079;-46
2022/11/06 02:56:35;;;;;;;35.13;6.25;;;;;;;12.23;100.00;96684.13;5104559;28;20094;-43
2022/11/06 02:59:08;;;;;;;70.35;7.43;;;;;;;11.57;100.00;96685.13;5097493;28;20075;-45
2022/11/06 03:01:39;;;;;;;36.13;6.50;;;;;;;12.00;100.00;96680.22;5099413;28;20086;-46
2022/11/06 03:04:12;;;;;;;75.55;7.97;;;;;;;11.44;100.00;96681.16;5104050;28;20070;-49
2022/11/06 03:06:43;;;;;;;49.22;6.55;;;;;;;11.36;100.00;96682.72;5097520;28;20087;-47
2022/11/06 03:09:14;;;;;;;35.17;6.30;;;;;;;11.56;100.00;96678.19;5099246;28;20667;-46
2022/11/06 03:11:43;;;;;;;45.03;5.82;;;;;;;11.58;100.00;96681.50;5099441;28;20530;-48
2022/11/06 03:14:18;;;;;;;43.08;6.32;;;;;;;11.73;100.00;96683.66;5103134;28;20697;-46
2022/11/06 03:16:53;;;;;;;29.42;6.05;;;;;;;11.12;100.00;96679.72;5098251;28;20115;-47
2022/11/06 03:19:26;;;;;;;16.42;5.28;;;;;;;11.67;100.00;96676.34;5096533;28;20533;-49
2022/11/06 03:22:01;;;;;;;25.60;5.30;;;;;;;11.65;100.00;96679.13;5098431;28;20075;-50
2022/11/06 03:24:32;;;;;;;14.55;4.47;;;;;;;11.93;100.00;96674.69;5098293;28;20553;-50
2022/11/06 03:27:06;;;;;;;7.63;4.43;;;;;;;11.87;100.00;96680.56;5100843;28;20079;-45
2022/11/06 03:29:39;;;;;;;12.20;4.70;;;;;;;11.86;100.00;96670.97;5083582;28;20068;-44
2022/11/06 03:32:15;;;;;;;16.00;5.07;;;;;;;11.04;100.00;96680.41;5100819;28;20079;-48
2022/11/06 03:34:50;;;;;;;15.70;5.60;;;;;;;11.09;100.00;96685.28;5101007;28;20521;-48
2022/11/06 03:37:33;;;;;;;22.95;6.97;;;;;;;11.50;100.00;96684.06;5100125;28;20087;-43
2022/11/06 03:40:03;;;;;;;34.42;6.93;;;;;;;11.81;100.00;96689.06;5096529;28;20087;-42
2022/11/06 03:42:32;;;;;;;33.90;7.18;;;;;;;12.20;100.00;96686.22;5098774;28;20090;-49
2022/11/06 03:45:04;;;;;;;36.67;9.73;;;;;;;12.22;100.00;96689.56;5100146;28;20083;-51
2022/11/06 03:47:34;;;;;;;25.98;6.53;;;;;;;12.54;100.00;96686.41;5102866;28;20094;-50
2022/11/06 03:50:06;;;;;;;14.77;5.28;;;;;;;12.54;100.00;96691.69;5102643;28;20079;-52
2022/11/06 03:52:39;;;;;;;17.00;5.20;;;;;;;12.63;100.00;96688.16;5096316;28;20553;-47
2022/11/06 03:55:15;;;;;;;12.73;6.15;;;;;;;12.56;100.00;96682.63;5106233;28;20087;-44
2022/11/06 03:57:45;;;;;;;20.95;5.95;;;;;;;11.81;100.00;96689.06;5098917;28;20090;-47
2022/11/06 04:00:16;;;;;;;34.30;6.82;;;;;;;11.01;100.00;96688.63;5097712;28;20087;-45
2022/11/06 04:02:45;;;;;;;;;;;;;;;10.96;100.00;96690.03;5100744;28;20083;-43
2022/11/06 04:05:16;;;;;;;17.27;6.00;;;;;;;11.01;100.00;96686.00;5102112;28;19955;-48
2022/11/06 04:13:56;;;;;;;12.85;5.80;;;;;;;11.92;100.00;96677.50;5098978;28;20051;-45
2022/11/06 04:16:22;;;;;;;25.08;5.80;;;;;;;10.54;100.00;96675.34;5099235;28;20173;-49
2022/11/06 04:18:50;;;;;;;14.70;5.35;;;;;;;9.98;100.00;96674.16;5099254;28;20094;-44
2022/11/06 04:21:26;;;;;;;21.02;5.57;;;;;;;10.14;100.00;96668.34;5098586;28;20075;-43
2022/11/06 04:26:58;;;;;;;23.15;6.13;;;;;;;9.82;100.00;96676.47;5103613;28;20071;-48
2022/11/06 04:29:34;;;;;;;20.58;7.03;;;;;;;10.31;100.00;96674.78;5102046;28;20063;-49
2022/11/06 04:32:10;;;;;;;25.45;7.68;;;;;;;10.79;100.00;96675.75;5101310;28;20072;-48
2022/11/06 04:34:43;;;;;;;21.95;7.35;;;;;;;10.96;100.00;96669.75;5093044;28;20428;-49
2022/11/06 04:37:17;;;;;;;22.08;7.10;;;;;;;11.73;100.00;96662.53;5099302;28;20079;-49
2022/11/06 04:39:52;;;;;;;9.38;4.85;;;;;;;11.75;100.00;96661.41;5102030;28;20080;-52
2022/11/06 04:42:25;;;;;;;8.55;5.07;;;;;;;11.28;100.00;96668.53;5095954;28;20587;-44
2022/11/06 04:44:58;;;;;;;15.70;5.30;;;;;;;10.80;100.00;96658.94;5100155;28;20075;-44
2022/11/06 04:47:28;;;;;;;11.63;5.40;;;;;;;10.67;100.00;96654.78;5099160;28;20068;-44
2022/11/06 04:49:59;;;;;;;29.25;6.05;;;;;;;11.39;100.00;96652.56;5093640;28;20074;-44
2022/11/06 04:52:28;;;;;;;24.77;7.43;;;;;;;10.34;100.00;96652.56;5105053;28;20082;-46
2022/11/06 04:54:58;;;;;;;29.15;6.43;;;;;;;10.16;100.00;96652.41;5099092;28;20093;-44
2022/11/06 04:57:26;;;;;;;26.80;6.47;;;;;;;10.71;100.00;96654.53;5101524;28;20123;-46
2022/11/06 04:59:55;;;;;;;44.35;7.93;;;;;;;9.97;100.00;96651.38;5098842;28;20044;-44
2022/11/06 05:02:24;;;;;;;30.67;6.95;;;;;;;9.33;100.00;96645.69;5096689;28;20518;-43
2022/11/06 05:04:54;;;;;;;33.95;7.40;;;;;;;9.80;100.00;96640.69;5100112;28;20121;-48
2022/11/06 05:07:22;;;;;;;52.93;12.37;;;;;;;9.70;100.00;96646.78;5092427;28;20079;-43
2022/11/06 05:09:51;;;;;;;43.75;8.15;;;;;;;10.07;100.00;96647.94;5097931;28;20149;-45
2022/11/06 05:12:19;;;;;;;30.90;8.52;;;;;;;10.08;100.00;96645.19;5099871;28;20426;-45
2022/11/06 05:14:48;;;;;;;25.35;8.45;;;;;;;10.86;100.00;96637.25;5098238;28;20079;-49
2022/11/06 05:17:16;;;;;;;22.75;6.50;;;;;;;10.68;100.00;96632.72;5092409;28;20083;-49
2022/11/06 05:19:44;;;;;;;21.95;6.60;;;;;;;10.33;100.00;96637.75;5097071;28;20571;-46
2022/11/06 05:25:00;;;;;;;23.25;6.13;;;;;;;10.62;100.00;96621.91;5098710;28;20478;-46
2022/11/06 05:27:28;;;;;;;20.60;6.75;;;;;;;11.40;100.00;96625.16;5096643;28;20126;-51
2022/11/06 05:29:57;;;;;;;15.38;6.50;;;;;;;11.77;100.00;96616.38;5098855;28;20075;-46
2022/11/06 05:32:25;;;;;;;19.77;6.07;;;;;;;12.02;100.00;96613.03;5100718;28;20094;-46
2022/11/06 05:34:53;;;;;;;29.60;7.63;;;;;;;12.01;100.00;96614.00;5101630;28;20086;-44
2022/11/06 05:37:23;;;;;;;43.90;7.03;;;;;;;12.07;100.00;96616.03;5094777;28;20076;-49
2022/11/06 05:39:51;;;;;;;65.20;7.47;;;;;;;11.58;100.00;96617.28;5096920;28;20082;-44
2022/11/06 05:42:20;;;;;;;48.40;7.90;;;;;;;11.15;100.00;96624.84;5096292;28;20466;-51
2022/11/06 05:44:48;;;;;;;36.78;6.50;;;;;;;11.67;100.00;96615.59;5101624;28;20082;-51
2022/11/06 05:47:17;;;;;;;55.22;6.97;;;;;;;11.06;100.00;96622.22;5096928;28;20474;-49
2022/11/06 05:49:45;;;;;;;48.63;6.75;;;;;;;11.11;100.00;96625.25;5096108;28;20529;-49
2022/11/06 05:52:13;;;;;;;56.03;7.40;;;;;;;11.44;100.00;96623.06;5091602;28;20168;-53
2022/11/06 05:54:43;;;;;;;64.18;7.35;;;;;;;11.51;100.00;96616.22;5099868;28;20094;-51
2022/11/06 05:57:11;;;;;;;51.67;8.23;;;;;;;10.80;100.00;96627.28;5098936;28;20079;-44
2022/11/06 05:59:39;;;;;;;77.00;10.43;;;;;;;10.26;100.00;96623.47;5102164;28;20079;-51
2022/11/06 06:02:08;;;;;;;67.18;7.22;;;;;;;10.75;100.00;96630.34;5092610;28;20087;-51
2022/11/06 06:04:36;;;;;;;70.57;7.63;;;;;;;10.50;100.00;96628.31;5098777;28;20087;-48
2022/11/06 06:07:05;;;;;;;49.20;7.13;;;;;;;10.80;100.00;96628.09;5094085;28;20076;-50
2022/11/06 06:09:33;;;;;;;57.75;7.55;;;;;;;10.78;100.00;96616.06;5099373;28;20530;-53
2022/11/06 06:12:03;;;;;;;60.38;6.88;;;;;;;11.00;100.00;96615.69;5098233;28;20083;-48
2022/11/06 06:14:31;;;;;;;65.50;7.50;;;;;;;11.17;100.00;96614.13;5096690;28;20095;-45
2022/11/06 06:17:00;;;;;;;58.95;6.95;;;;;;;10.87;100.00;96609.91;5096525;28;20525;-47
2022/11/06 06:19:28;;;;;;;26.08;7.03;;;;;;;11.13;100.00;96599.56;5096185;28;20550;-48
2022/11/06 06:21:56;;;;;;;35.08;8.52;;;;;;;10.36;100.00;96606.66;5096691;28;20087;-50
2022/11/06 06:24:24;;;;;;;24.90;9.27;;;;;;;10.80;100.00;96603.53;5098098;28;20087;-47
2022/11/06 06:26:53;;;;;;;26.98;11.15;;;;;;;10.61;100.00;96599.97;5099755;28;20084;-48
2022/11/06 06:29:22;;;;;;;14.02;7.95;;;;;;;10.52;100.00;96594.72;5099354;28;20090;-52
2022/11/06 06:31:51;;;;;;;12.20;7.03;;;;;;;9.86;100.00;96598.00;5100389;28;20075;-44
2022/11/06 06:34:19;;;;;;;11.43;7.07;;;;;;;9.84;100.00;96590.25;5102408;28;20086;-48
2022/11/06 06:36:49;;;;;;;12.80;6.55;;;;;;;10.02;100.00;96593.03;5104431;28;20439;-53
2022/11/06 06:39:19;;;;;;;18.47;7.63;;;;;;;10.82;100.00;96586.59;5105890;28;20082;-45
2022/11/06 06:41:47;;;;;;;16.87;7.70;;;;;;;10.67;100.00;96585.41;5102386;28;20500;-45
2022/11/06 06:44:16;;;;;;;26.90;9.25;;;;;;;10.67;100.00;96588.03;5105578;28;20087;-43
2022/11/06 06:46:46;;;;;;;30.98;8.95;;;;;;;10.50;100.00;96581.69;5101229;28;20087;-47
2022/11/06 06:49:14;;;;;;;31.40;9.60;;;;;;;11.41;100.00;96589.84;5100941;28;20095;-54
2022/11/06 06:51:43;;;;;;;41.78;10.25;;;;;;;10.77;100.00;96590.63;5101011;28;20079;-47
2022/11/06 06:54:11;;;;;;;56.38;12.45;;;;;;;11.03;100.00;96575.84;5103256;28;20098;-47
2022/11/06 06:56:39;;;;;;;33.53;10.77;;;;;;;11.16;100.00;96578.97;5098055;28;20757;-47
2022/11/06 06:59:08;;;;;;;62.17;13.63;;;;;;;10.93;100.00;96582.94;5101049;28;20075;-49
2022/11/06 07:01:36;;;;;;;35.80;11.50;;;;;;;11.13;100.00;96581.09;5101311;28;20094;-48
2022/11/06 07:04:06;;;;;;;36.80;11.90;;;;;;;11.45;100.00;96578.00;5098474;28;20075;-48
2022/11/06 07:06:35;;;;;;;45.40;12.45;;;;;;;11.04;100.00;96579.31;5101482;28;20583;-45
2022/11/06 07:09:03;;;;;;;40.55;12.18;;;;;;;11.70;100.00;96578.28;5102578;28;20354;-48
2022/11/06 07:11:32;;;;;;;56.65;13.57;;;;;;;10.79;100.00;96578.97;5103215;28;20075;-54
2022/11/06 07:14:00;;;;;;;70.30;14.02;;;;;;;10.74;100.00;96583.84;5098237;28;20083;-51
2022/11/06 07:16:31;;;;;;;69.40;13.80;;;;;;;11.44;100.00;96579.00;5098502;28;20079;-55
2022/11/06 07:18:59;;;;;;;73.32;14.32;;;;;;;11.40;100.00;96591.66;5101720;28;20646;-50
2022/11/06 07:21:29;;;;;;;93.75;14.98;;;;;;;11.11;100.00;96609.41;5102315;28;20083;-49
2022/11/06 07:23:57;;;;;;;114.60;17.20;;;;;;;11.96;100.00;96608.31;5102227;28;20547;-50
2022/11/06 07:26:25;;;;;;;84.70;22.05;;;;;;;10.81;100.00;96623.69;5102682;28;20079;-48
2022/11/06 07:28:54;;;;;;;69.05;13.60;;;;;;;10.40;100.00;96621.22;5101523;28;20072;-46
2022/11/06 07:31:23;;;;;;;67.13;13.25;;;;;;;10.77;100.00;96619.63;5101042;28;20080;-44
2022/11/06 07:33:51;;;;;;;83.43;17.88;;;;;;;10.64;100.00;96618.16;5098429;28;20090;-49
2022/11/06 07:36:20;;;;;;;103.80;28.67;;;;;;;10.54;100.00;96619.13;5098766;28;20052;-49
2022/11/06 07:38:50;;;;;;;92.43;31.13;;;;;;;11.30;100.00;96629.66;5096120;28;20083;-46
2022/11/06 07:41:19;;;;;;;117.70;42.20;;;;;;;12.29;100.00;96612.13;5099906;28;20071;-43
2022/11/06 07:43:49;;;;;;;100.25;36.42;;;;;;;12.86;100.00;96621.50;5102577;28;20072;-46
2022/11/06 07:46:17;;;;;;;117.90;48.85;;;;;;;12.59;100.00;96615.34;5100785;28;20075;-47
2022/11/06 07:48:45;;;;;;;64.68;14.07;;;;;;;13.25;100.00;96616.66;5101804;28;20083;-49
2022/11/06 07:51:14;;;;;;;41.13;11.77;;;;;;;12.71;100.00;96608.84;5098864;28;20083;-51
2022/11/06 07:53:42;;;;;;;41.20;20.13;;;;;;;12.37;100.00;96610.53;5101237;28;20075;-48
2022/11/06 07:56:12;;;;;;;62.65;21.75;;;;;;;12.70;100.00;96615.13;5100034;28;20079;-51
2022/11/06 07:58:40;;;;;;;31.63;14.02;;;;;;;12.96;100.00;96606.34;5104633;28;20088;-47
2022/11/06 08:01:14;;;;;;;29.17;11.75;;;;;;;13.44;100.00;96605.00;5102605;28;20593;-44
2022/11/06 08:03:46;;;;;;;44.00;13.40;;;;;;;13.87;100.00;96597.88;5097850;28;20087;-48
2022/11/06 08:06:14;;;;;;;26.88;11.90;;;;;;;12.68;100.00;96598.56;5102022;28;20332;-46
2022/11/06 08:08:43;;;;;;;33.25;13.73;;;;;;;13.37;100.00;96596.03;5100027;28;20083;-47
2022/11/06 08:11:13;;;;;;;30.35;13.43;;;;;;;13.76;100.00;96586.56;5104639;28;20067;-46
2022/11/06 08:13:42;;;;;;;32.67;13.75;;;;;;;13.91;100.00;96578.81;5091401;28;20079;-49
2022/11/06 08:16:13;;;;;;;31.90;15.13;;;;;;;13.28;100.00;96581.91;5104570;28;20458;-46
2022/11/06 08:18:41;;;;;;;31.65;13.57;;;;;;;12.77;100.00;96584.41;5090720;28;20493;-46
2022/11/06 08:21:10;;;;;;;26.70;12.43;;;;;;;14.62;100.00;96563.31;5095641;28;20079;-46
2022/11/06 08:23:38;;;;;;;30.27;12.93;;;;;;;14.64;100.00;96559.50;5094464;28;20074;-46
2022/11/06 08:26:07;;;;;;;28.52;13.40;;;;;;;14.73;100.00;96549.72;5099997;28;20055;-46
2022/11/06 08:28:36;;;;;;;28.60;13.60;;;;;;;15.13;100.00;96554.06;5096657;28;20086;-49
2022/11/06 08:31:05;;;;;;;27.77;12.90;;;;;;;14.10;100.00;96550.34;5101772;28;20071;-44
2022/11/06 08:33:34;;;;;;;30.17;14.20;;;;;;;14.68;100.00;96534.25;5096568;28;20463;-48
2022/11/06 08:36:04;;;;;;;26.50;12.73;;;;;;;14.48;100.00;96531.09;5091860;28;20076;-50
2022/11/06 08:38:32;;;;;;;25.65;13.32;;;;;;;14.32;100.00;96530.31;5100180;28;20076;-48
2022/11/06 08:41:04;;;;;;;31.48;15.93;;;;;;;14.00;100.00;96530.13;5095516;28;20098;-44
2022/11/06 08:43:33;;;;;;;31.48;15.85;;;;;;;14.02;100.00;96524.66;5097947;28;20063;-44
2022/11/06 08:46:03;;;;;;;31.10;13.90;;;;;;;13.84;100.00;96529.28;5096889;28;20075;-47
2022/11/06 08:48:33;;;;;;;25.60;12.15;;;;;;;13.96;100.00;96535.91;5081256;28;20063;-44
2022/11/06 08:51:01;;;;;;;25.90;12.32;;;;;;;13.73;100.00;96541.00;5099926;28;20075;-47
2022/11/06 08:53:30;;;;;;;26.15;12.95;;;;;;;14.16;100.00;96534.59;5098401;28;20072;-44
2022/11/06 08:55:58;;;;;;;27.15;12.85;;;;;;;14.55;100.00;96531.28;5098173;28;20463;-43
2022/11/06 08:58:27;;;;;;;23.85;12.60;;;;;;;15.49;100.00;96528.88;5097511;28;20080;-45
2022/11/06 09:00:55;;;;;;;25.98;12.57;;;;;;;16.12;100.00;96527.88;5100647;28;20090;-44
2022/11/06 09:03:25;;;;;;;25.65;13.73;;;;;;;16.38;100.00;96527.50;5100222;28;20063;-44
2022/11/06 09:05:53;;;;;;;23.47;13.03;;;;;;;15.77;100.00;96511.47;5101312;28;20640;-44
2022/11/06 09:08:23;;;;;;;25.77;13.38;;;;;;;14.81;100.00;96520.47;5102529;28;20501;-45
2022/11/06 09:10:51;;;;;;;22.80;13.10;;;;;;;15.64;100.00;96511.19;5096346;28;20435;-43
2022/11/06 09:13:26;;;;;;;23.00;13.18;;;;;;;15.81;100.00;96515.44;5094096;28;20460;-45
2022/11/06 09:15:54;;;;;;;23.95;12.20;;;;;;;15.47;100.00;96512.28;5100483;28;20438;-44
2022/11/06 09:18:22;;;;;;;22.52;13.07;;;;;;;14.90;100.00;96505.34;5097944;28;20599;-43
2022/11/06 09:20:55;;;;;;;26.25;13.13;;;;;;;15.18;100.00;96490.66;5073572;28;20088;-54
2022/11/06 09:23:24;;;;;;;22.60;13.30;;;;;;;14.13;100.00;96486.34;5105093;28;20074;-43
2022/11/06 09:25:53;;;;;;;23.80;13.15;;;;;;;14.52;100.00;96481.25;5104084;28;20066;-46
2022/11/06 09:28:21;;;;;;;26.20;13.75;;;;;;;15.44;100.00;96482.38;5104338;28;20071;-43
2022/11/06 09:30:49;;;;;;;24.13;13.85;;;;;;;14.85;100.00;96481.97;5095111;28;20114;-44
2022/11/06 09:33:18;;;;;;;23.13;13.15;;;;;;;14.48;100.00;96474.56;5099412;28;20080;-52
2022/11/06 09:35:47;;;;;;;26.27;14.68;;;;;;;14.51;100.00;96460.97;5095093;28;20144;-47
2022/11/06 09:38:17;;;;;;;25.08;12.98;;;;;;;15.30;100.00;96445.09;5096975;28;20075;-49
2022/11/06 09:40:49;;;;;;;22.48;13.05;;;;;;;14.76;100.00;96445.00;5094546;28;20079;-48
2022/11/06 09:43:31;;;;;;;23.30;12.98;;;;;;;15.40;100.00;96438.56;5096762;28;20628;-50
2022/11/06 09:46:22;;;;;;;19.25;11.60;;;;;;;14.84;100.00;96432.53;5096929;28;20802;-45
2022/11/06 09:48:55;;;;;;;19.38;10.50;;;;;;;15.12;100.00;96418.78;5096275;28;20079;-47
2022/11/06 09:51:31;;;;;;;21.27;13.60;;;;;;;14.95;100.00;96420.69;5094968;28;20071;-47
2022/11/06 09:54:07;;;;;;;20.42;11.55;;;;;;;15.38;100.00;96408.69;5097491;28;20083;-45
2022/11/06 09:56:38;;;;;;;22.65;12.77;;;;;;;16.16;100.00;96411.28;5095868;28;20076;-50
2022/11/06 09:59:11;;;;;;;21.63;13.65;;;;;;;15.46;100.00;96405.16;5097544;28;20083;-42
2022/11/06 10:01:42;;;;;;;24.85;15.23;;;;;;;15.88;100.00;96398.53;5093914;28;20086;-43
2022/11/06 10:04:32;;;;;;;26.52;15.35;;;;;;;16.28;100.00;96400.00;5094864;28;20087;-49
2022/11/06 10:07:00;;;;;;;21.38;12.80;;;;;;;16.85;100.00;96396.72;5097658;28;20080;-43
2022/11/06 10:09:30;;;;;;;22.23;13.05;;;;;;;15.82;100.00;96399.25;5094926;28;20075;-43
2022/11/06 10:12:04;;;;;;;20.48;11.68;;;;;;;16.18;100.00;96391.47;5097348;28;20082;-43
2022/11/06 10:14:44;;;;;;;24.08;15.27;;;;;;;15.82;100.00;96392.09;5092790;28;20075;-49
2022/11/06 10:17:20;;;;;;;22.90;15.35;;;;;;;15.37;100.00;96382.28;5098579;28;20086;-50
2022/11/06 10:19:50;;;;;;;20.48;13.63;;;;;;;15.39;100.00;96380.28;5095220;28;20090;-45
2022/11/06 10:22:21;;;;;;;19.35;12.63;;;;;;;15.72;100.00;96372.09;5092006;28;20514;-48
2022/11/06 10:24:58;;;;;;;17.45;11.43;;;;;;;15.35;100.00;96360.38;5095985;28;20084;-44
2022/11/06 10:27:28;;;;;;;17.80;11.55;;;;;;;16.24;100.00;96356.16;5093727;28;20471;-46
2022/11/06 10:30:09;;;;;;;16.57;11.40;;;;;;;16.01;100.00;96353.53;5100839;28;20079;-42
2022/11/06 10:33:02;;;;;;;16.38;10.70;;;;;;;17.17;100.00;96346.72;5098058;28;20516;-45
2022/11/06 10:35:34;;;;;;;16.02;12.00;;;;;;;16.05;100.00;96351.34;5094467;28;20120;-43
2022/11/06 10:38:06;;;;;;;14.32;9.35;;;;;;;16.59;100.00;96338.63;5091035;28;20072;-42
2022/11/06 10:40:36;;;;;;;12.95;8.50;;;;;;;17.02;100.00;96330.75;5092770;28;20088;-45
2022/11/06 10:43:14;;;;;;;13.23;8.75;;;;;;;16.90;100.00;96331.44;5096346;28;20074;-44
2022/11/06 10:45:47;;;;;;;12.55;8.35;;;;;;;16.70;100.00;96324.00;5093779;28;20084;-43
2022/11/06 10:48:22;;;;;;;11.18;8.55;;;;;;;17.25;100.00;96324.44;5094337;28;20094;-48
2022/11/06 10:51:08;;;;;;;8.70;6.50;;;;;;;16.14;100.00;96315.69;5094177;28;20086;-45
2022/11/06 10:53:46;;;;;;;6.97;4.88;;;;;;;16.21;100.00;96321.94;5094374;28;20082;-45
2022/11/06 10:56:46;;;;;;;8.90;7.03;;;;;;;16.15;100.00;96298.72;5095947;28;20094;-43
2022/11/06 10:59:15;;;;;;;;;;;;;;;15.84;100.00;96293.56;5093877;28;20087;-50
2022/11/06 11:01:43;;;;;;;6.63;5.10;;;;;;;15.90;100.00;96293.66;5090659;28;19971;-46
2022/11/06 11:04:11;;;;;;;10.27;6.07;;;;;;;15.90;100.00;96284.84;5094514;28;20080;-44
2022/11/06 11:06:40;;;;;;;7.60;5.38;;;;;;;15.98;100.00;96276.78;5096677;28;20080;-45
2022/11/06 11:09:29;;;;;;;6.63;4.80;;;;;;;16.62;100.00;96268.19;5090595;28;20079;-47
2022/11/06 11:11:59;;;;;;;9.27;6.10;;;;;;;16.72;100.00;96266.03;5094675;28;20067;-48
2022/11/06 11:14:29;;;;;;;7.70;5.82;;;;;;;15.87;100.00;96264.75;5099211;28;20099;-46
2022/11/06 11:17:00;;;;;;;6.00;4.50;;;;;;;15.25;100.00;96258.84;5097079;28;20072;-44
2022/11/06 11:19:36;;;;;;;6.43;5.07;;;;;;;15.91;100.00;96243.94;5098374;28;20075;-43
2022/11/06 11:22:16;;;;;;;8.23;6.03;;;;;;;15.86;100.00;96235.69;5100387;28;20079;-47
2022/11/06 11:24:59;;;;;;;8.38;6.20;;;;;;;16.93;100.00;96227.16;5093187;28;20075;-47
2022/11/06 11:27:29;;;;;;;7.82;6.20;;;;;;;16.34;100.00;96228.97;5101561;28;20075;-48
2022/11/06 11:29:58;;;;;;;7.45;6.45;;;;;;;15.93;100.00;96219.81;5094950;28;20082;-43
2022/11/06 11:32:29;;;;;;;8.18;6.25;;;;;;;16.28;100.00;96219.06;5097400;28;20083;-51
2022/11/06 11:34:58;;;;;;;5.95;4.28;;;;;;;15.89;100.00;96214.88;5098184;28;20090;-45
2022/11/06 11:37:28;;;;;;;8.75;6.13;;;;;;;16.30;100.00;96221.53;5093212;28;20300;-43
2022/11/06 11:40:20;;;;;;;9.90;6.88;;;;;;;15.87;100.00;96208.91;5100477;28;20072;-45
2022/11/06 11:42:50;;;;;;;11.55;8.23;;;;;;;16.60;100.00;96204.47;5097779;28;20646;-48
2022/11/06 11:45:20;;;;;;;12.03;8.23;;;;;;;15.92;100.00;96202.22;5094518;28;20087;-50
2022/11/06 11:47:50;;;;;;;10.70;6.82;;;;;;;16.01;100.00;96196.63;5099180;28;20513;-49